createdAt,value
2023-01-30T00:03:24.720Z,70.22
2023-01-30T00:08:27.165Z,70.63
2023-01-30T00:13:28.538Z,71.30
2023-01-30T00:18:30.070Z,71.94
2023-01-30T00:23:33.720Z,72.25
2023-01-30T00:28:35.406Z,72.74
2023-01-30T00:33:38.903Z,73.26
2023-01-30T00:38:40.727Z,72.99
2023-01-30T00:44:01.052Z,73.85
2023-01-30T00:49:02.644Z,75.17
2023-01-30T00:54:04.481Z,75.20
2023-01-30T00:59:05.784Z,75.13
2023-01-30T01:04:08.848Z,75.23
2023-01-30T01:09:10.746Z,75.52
2023-01-30T01:14:12.070Z,76.95
2023-01-30T01:19:13.712Z,77.63
2023-01-30T01:24:16.073Z,77.30
2023-01-30T01:29:17.662Z,77.11
2023-01-30T01:34:19.225Z,77.06
2023-01-30T01:39:20.801Z,76.88
2023-01-30T01:44:25.080Z,76.86
2023-01-30T01:49:30.674Z,76.94
2023-01-30T01:54:49.425Z,76.74
2023-01-30T02:00:05.025Z,76.76
2023-01-30T02:05:07.083Z,77.08
2023-01-30T02:10:13.767Z,77.70
2023-01-30T02:15:17.059Z,77.39
2023-01-30T02:20:37.375Z,77.34
2023-01-30T02:26:17.658Z,77.12
2023-01-30T02:31:29.708Z,76.85
2023-01-30T02:36:45.568Z,77.08
2023-01-30T02:42:04.976Z,76.95
2023-01-30T02:47:38.647Z,77.19
2023-01-30T02:52:40.870Z,77.27
2023-01-30T02:57:42.463Z,76.80
2023-01-30T03:03:07.356Z,77.07
2023-01-30T03:08:08.854Z,77.49
2023-01-30T03:13:19.608Z,77.96
2023-01-30T03:18:22.044Z,77.61
2023-01-30T03:23:23.370Z,78.22
2023-01-30T03:28:25.806Z,78.43
2023-01-30T03:33:27.144Z,78.15
2023-01-30T03:38:28.552Z,77.70
2023-01-30T03:43:30.275Z,77.98
2023-01-30T03:48:31.609Z,78.51
2023-01-30T03:53:32.938Z,78.50
2023-01-30T03:58:34.317Z,78.58
2023-01-30T04:03:35.671Z,79.16
2023-01-30T04:08:37.056Z,78.99
2023-01-30T04:13:38.500Z,79.00
2023-01-30T04:18:39.882Z,79.64
2023-01-30T04:23:41.924Z,79.93
2023-01-30T04:28:44.592Z,80.09
2023-01-30T04:33:46.145Z,80.82
2023-01-30T04:38:47.704Z,80.84
2023-01-30T04:43:49.174Z,81.38
2023-01-30T04:48:50.561Z,81.07
2023-01-30T04:53:51.950Z,80.98
2023-01-30T04:58:53.503Z,81.03
2023-01-30T05:03:55.226Z,80.17
2023-01-30T05:08:57.457Z,80.78
2023-01-30T05:13:59.166Z,80.59
2023-01-30T05:19:00.609Z,80.30
2023-01-30T05:24:02.102Z,80.55
2023-01-30T05:29:03.559Z,80.39
2023-01-30T05:34:04.947Z,80.86
2023-01-30T05:39:06.392Z,81.43
2023-01-30T05:44:07.806Z,82.18
2023-01-30T05:49:09.113Z,82.92
2023-01-30T05:54:10.428Z,83.88
2023-01-30T05:59:12.563Z,84.49
2023-01-30T06:04:14.101Z,85.50
2023-01-30T06:09:15.489Z,86.54
2023-01-30T06:14:16.879Z,86.65
2023-01-30T06:19:18.245Z,87.42
2023-01-30T06:24:19.599Z,87.77
2023-01-30T06:29:21.016Z,88.11
2023-01-30T06:34:22.420Z,88.29
2023-01-30T06:39:23.850Z,88.23
2023-01-30T06:44:25.186Z,87.76
2023-01-30T06:49:26.554Z,87.85
2023-01-30T06:54:27.932Z,87.02
2023-01-30T06:59:30.324Z,87.28
2023-01-30T07:04:31.805Z,87.27
2023-01-30T07:09:33.238Z,86.77
2023-01-30T07:14:35.075Z,87.64
2023-01-30T07:19:36.393Z,87.64
2023-01-30T07:24:38.507Z,88.54
2023-01-30T07:29:40.075Z,87.72
2023-01-30T07:34:42.253Z,87.99
2023-01-30T07:39:43.942Z,88.39
2023-01-30T07:44:45.272Z,88.42
2023-01-30T07:49:46.601Z,88.62
2023-01-30T07:54:47.953Z,89.17
2023-01-30T07:59:49.421Z,89.82
2023-01-30T08:04:50.841Z,91.32
2023-01-30T08:09:52.466Z,90.85
2023-01-30T08:14:53.886Z,91.30
2023-01-30T08:19:55.367Z,91.26
2023-01-30T08:24:56.653Z,91.94
2023-01-30T08:29:57.967Z,91.94
2023-01-30T08:34:59.437Z,92.40
2023-01-30T08:40:00.783Z,92.16
2023-01-30T08:45:02.564Z,92.44
2023-01-30T08:50:04.739Z,93.13
2023-01-30T08:55:06.412Z,92.55
2023-01-30T09:00:09.184Z,92.34
2023-01-30T09:05:11.210Z,92.43
2023-01-30T09:10:12.571Z,91.86
2023-01-30T09:15:14.039Z,91.93
2023-01-30T09:20:15.493Z,91.02
2023-01-30T09:25:17.483Z,90.70
2023-01-30T09:30:19.599Z,90.42
2023-01-30T09:35:21.102Z,90.03
2023-01-30T09:40:27.161Z,86.97
2023-01-30T09:45:59.876Z,84.66
2023-01-30T09:51:17.878Z,85.05
2023-01-30T09:56:19.967Z,86.66
2023-01-30T10:01:44.298Z,87.47
2023-01-30T10:07:04.878Z,87.19
2023-01-30T10:12:32.283Z,85.86
2023-01-30T10:17:43.082Z,72.66
2023-01-30T10:23:02.116Z,65.43
2023-01-30T10:28:16.395Z,68.57
2023-01-30T10:33:26.355Z,75.36
2023-01-30T10:38:43.967Z,76.84
2023-01-30T10:43:58.782Z,76.48
2023-01-30T10:49:19.693Z,74.18
2023-01-30T10:55:02.991Z,76.55
2023-01-30T11:01:03.463Z,69.15
2023-01-30T11:06:13.364Z,72.09
2023-01-30T11:11:31.127Z,74.84
2023-01-30T11:16:43.365Z,76.33
2023-01-30T11:21:53.587Z,76.60
2023-01-30T11:26:56.621Z,71.56
2023-01-30T11:32:11.385Z,74.14
2023-01-30T11:37:26.663Z,75.99
2023-01-30T11:42:32.184Z,74.65
2023-01-30T11:47:33.624Z,75.62
2023-01-30T11:52:38.126Z,72.42
2023-01-30T11:57:51.179Z,71.40
2023-01-30T12:02:54.325Z,74.15
2023-01-30T12:08:31.212Z,75.88
2023-01-30T12:13:45.418Z,77.04
2023-01-30T12:18:59.322Z,78.93
2023-01-30T12:24:11.649Z,80.30
2023-01-30T12:29:29.821Z,80.17
2023-01-30T12:34:31.419Z,80.09
2023-01-30T12:39:47.812Z,80.97
2023-01-30T12:45:19.691Z,80.00
2023-01-30T12:50:38.259Z,79.71
2023-01-30T12:55:58.361Z,78.09
2023-01-30T13:01:29.485Z,76.86
2023-01-30T13:07:26.251Z,76.18
2023-01-30T13:12:42.907Z,76.34
2023-01-30T13:17:56.003Z,76.04
2023-01-30T13:23:27.113Z,76.16
2023-01-30T13:28:35.283Z,76.47
2023-01-30T13:33:40.560Z,77.06
2023-01-30T13:39:13.496Z,76.36
2023-01-30T13:44:23.049Z,75.44
2023-01-30T13:49:36.614Z,75.60
2023-01-30T13:54:50.628Z,75.34
2023-01-30T14:00:16.915Z,74.67
2023-01-30T14:06:00.972Z,74.26
2023-01-30T14:11:03.129Z,73.77
2023-01-30T14:16:06.830Z,72.75
2023-01-30T14:21:25.316Z,60.24
2023-01-30T14:26:55.974Z,64.96
2023-01-30T14:31:57.612Z,67.08
2023-01-30T14:36:59.114Z,66.65
2023-01-30T14:42:33.418Z,68.55
2023-01-30T14:47:44.812Z,70.15
2023-01-30T14:52:54.517Z,71.35
2023-01-30T14:58:02.622Z,71.34
2023-01-30T15:03:24.785Z,71.76
2023-01-30T15:08:26.980Z,71.91
2023-01-30T15:13:41.444Z,71.80
2023-01-30T15:19:28.643Z,71.84
2023-01-30T15:25:07.631Z,71.27
2023-01-30T15:30:29.605Z,70.95
2023-01-30T15:35:31.083Z,72.15
2023-01-30T15:40:32.830Z,72.15
2023-01-30T15:45:34.249Z,71.89
2023-01-30T15:50:37.250Z,71.96
2023-01-30T15:55:38.696Z,71.04
2023-01-30T16:00:49.172Z,70.15
2023-01-30T16:05:55.184Z,70.24
2023-01-30T16:10:56.787Z,70.13
2023-01-30T16:16:01.130Z,69.76
2023-01-30T16:21:06.464Z,69.47
2023-01-30T16:26:14.306Z,69.82
2023-01-30T16:31:18.259Z,69.65
2023-01-30T16:36:19.614Z,69.50
2023-01-30T16:41:44.875Z,69.72
2023-01-30T16:46:46.248Z,68.44
2023-01-30T16:51:49.225Z,68.65
2023-01-30T16:56:55.466Z,68.37
2023-01-30T17:01:59.077Z,68.83
2023-01-30T17:07:04.359Z,68.23
2023-01-30T17:12:42.695Z,67.74
2023-01-30T17:17:44.455Z,67.89
2023-01-30T17:22:48.325Z,67.29
2023-01-30T17:27:49.900Z,66.94
2023-01-30T17:32:51.293Z,66.71
2023-01-30T17:38:03.504Z,66.67
2023-01-30T17:43:06.034Z,66.79
2023-01-30T17:48:08.006Z,67.05
2023-01-30T17:53:09.462Z,67.40
2023-01-30T17:58:19.474Z,67.24
2023-01-30T18:03:21.038Z,67.43
2023-01-30T18:08:22.434Z,67.43
2023-01-30T18:13:23.788Z,68.08
2023-01-30T18:18:25.606Z,68.39
2023-01-30T18:23:27.281Z,67.91
2023-01-30T18:28:28.767Z,67.77
2023-01-30T18:33:30.183Z,67.28
2023-01-30T18:38:32.213Z,67.53
2023-01-30T18:43:33.698Z,67.20
2023-01-30T18:48:35.822Z,67.10
2023-01-30T18:53:37.842Z,67.23
2023-01-30T18:58:39.565Z,67.11
2023-01-30T19:03:41.529Z,67.25
2023-01-30T19:08:43.048Z,67.31
2023-01-30T19:13:44.403Z,67.62
2023-01-30T19:18:46.060Z,67.35
2023-01-30T19:23:49.054Z,67.83
2023-01-30T19:28:51.438Z,67.30
2023-01-30T19:33:56.364Z,67.54
2023-01-30T19:38:59.642Z,68.46
2023-01-30T19:44:03.696Z,68.17
2023-01-30T19:49:05.788Z,68.34
2023-01-30T19:54:10.564Z,68.92
2023-01-30T19:59:12.992Z,69.23
2023-01-30T20:04:14.365Z,69.25
2023-01-30T20:09:16.168Z,69.71
2023-01-30T20:14:17.591Z,70.84
2023-01-30T20:19:19.054Z,70.73
2023-01-30T20:24:20.417Z,70.46
2023-01-30T20:29:21.931Z,70.65
2023-01-30T20:34:24.056Z,70.07
2023-01-30T20:39:25.749Z,69.88
2023-01-30T20:44:27.167Z,69.17
2023-01-30T20:49:28.502Z,69.44
2023-01-30T20:54:29.853Z,68.94
2023-01-30T20:59:31.397Z,68.54
2023-01-30T21:04:33.216Z,68.37
2023-01-30T21:09:34.785Z,68.68
2023-01-30T21:14:36.184Z,68.33
2023-01-30T21:19:38.371Z,68.52
2023-01-30T21:24:44.276Z,68.15
2023-01-30T21:29:45.708Z,68.63
2023-01-30T21:34:47.267Z,68.34
2023-01-30T21:40:07.436Z,68.67
2023-01-30T21:45:09.125Z,68.35
2023-01-30T21:50:10.917Z,68.54
2023-01-30T21:55:12.307Z,68.55
2023-01-30T22:00:14.371Z,69.81
2023-01-30T22:05:15.770Z,71.41
2023-01-30T22:10:17.328Z,71.92
2023-01-30T22:15:21.640Z,71.71
2023-01-30T22:20:23.253Z,72.11
2023-01-30T22:25:24.656Z,72.00
2023-01-30T22:30:26.205Z,72.59
2023-01-30T22:35:27.495Z,71.89
2023-01-30T22:40:28.865Z,71.59
2023-01-30T22:45:30.310Z,71.79
2023-01-30T22:50:31.685Z,71.54
2023-01-30T22:55:35.809Z,71.49
2023-01-30T23:00:37.106Z,71.99
2023-01-30T23:05:39.191Z,72.40
2023-01-30T23:10:40.558Z,72.95
2023-01-30T23:15:43.433Z,73.44
2023-01-30T23:20:45.385Z,73.33
2023-01-30T23:25:47.009Z,73.63
2023-01-30T23:30:48.472Z,73.92
2023-01-30T23:35:49.780Z,73.01
2023-01-30T23:40:51.217Z,73.38
2023-01-30T23:45:55.917Z,74.43
2023-01-30T23:50:57.352Z,75.30
2023-01-30T23:55:58.904Z,75.01
